sensor_id;sensor_type;location;lat;lon;timestamp;temperature;humidity
40932;DHT22;36257;46.052;12.540;2023-02-22T00:00:49;9.30;96.70
40932;DHT22;36257;46.052;12.540;2023-02-22T00:03:28;9.30;95.80
40932;DHT22;36257;46.052;12.540;2023-02-22T00:05:58;9.30;95.90
40932;DHT22;36257;46.052;12.540;2023-02-22T00:08:26;9.40;96.70
40932;DHT22;36257;46.052;12.540;2023-02-22T00:11:06;9.40;96.50
40932;DHT22;36257;46.052;12.540;2023-02-22T00:13:36;9.40;96.30
40932;DHT22;36257;46.052;12.540;2023-02-22T00:16:02;9.40;95.90
40932;DHT22;36257;46.052;12.540;2023-02-22T00:18:29;9.40;96.10
40932;DHT22;36257;46.052;12.540;2023-02-22T00:20:56;9.40;96.60
40932;DHT22;36257;46.052;12.540;2023-02-22T00:23:26;9.40;96.90
40932;DHT22;36257;46.052;12.540;2023-02-22T00:25:56;9.30;97.40
40932;DHT22;36257;46.052;12.540;2023-02-22T00:28:22;9.30;97.70
40932;DHT22;36257;46.052;12.540;2023-02-22T00:30:50;9.20;98.40
40932;DHT22;36257;46.052;12.540;2023-02-22T00:33:17;9.30;98.30
40932;DHT22;36257;46.052;12.540;2023-02-22T00:35:43;9.30;98.30
40932;DHT22;36257;46.052;12.540;2023-02-22T00:38:14;9.40;97.80
40932;DHT22;36257;46.052;12.540;2023-02-22T00:40:40;9.40;97.80
40932;DHT22;36257;46.052;12.540;2023-02-22T00:43:06;9.30;97.90
40932;DHT22;36257;46.052;12.540;2023-02-22T00:45:34;9.30;98.00
40932;DHT22;36257;46.052;12.540;2023-02-22T00:48:00;9.20;97.90
40932;DHT22;36257;46.052;12.540;2023-02-22T00:50:29;9.30;98.10
40932;DHT22;36257;46.052;12.540;2023-02-22T00:52:55;9.20;98.10
40932;DHT22;36257;46.052;12.540;2023-02-22T00:55:25;9.20;98.20
40932;DHT22;36257;46.052;12.540;2023-02-22T00:57:51;9.20;98.10
40932;DHT22;36257;46.052;12.540;2023-02-22T01:00:28;9.10;98.40
40932;DHT22;36257;46.052;12.540;2023-02-22T01:02:55;9.10;98.60
40932;DHT22;36257;46.052;12.540;2023-02-22T01:05:25;9.10;98.10
40932;DHT22;36257;46.052;12.540;2023-02-22T01:07:52;9.20;97.90
40932;DHT22;36257;46.052;12.540;2023-02-22T01:10:22;9.20;97.40
40932;DHT22;36257;46.052;12.540;2023-02-22T01:12:48;9.10;96.70
40932;DHT22;36257;46.052;12.540;2023-02-22T01:15:21;9.10;95.80
40932;DHT22;36257;46.052;12.540;2023-02-22T01:17:51;9.10;95.90
40932;DHT22;36257;46.052;12.540;2023-02-22T01:20:18;9.20;94.40
40932;DHT22;36257;46.052;12.540;2023-02-22T01:22:46;9.20;93.70
40932;DHT22;36257;46.052;12.540;2023-02-22T01:25:17;9.20;93.80
40932;DHT22;36257;46.052;12.540;2023-02-22T01:27:46;9.30;93.60
40932;DHT22;36257;46.052;12.540;2023-02-22T01:30:13;9.30;93.30
40932;DHT22;36257;46.052;12.540;2023-02-22T01:32:40;9.40;93.20
40932;DHT22;36257;46.052;12.540;2023-02-22T01:35:10;9.30;92.90
40932;DHT22;36257;46.052;12.540;2023-02-22T01:37:36;9.30;92.70
40932;DHT22;36257;46.052;12.540;2023-02-22T01:40:03;9.30;92.80
40932;DHT22;36257;46.052;12.540;2023-02-22T01:42:31;9.40;92.70
40932;DHT22;36257;46.052;12.540;2023-02-22T01:47:59;9.50;92.30
40932;DHT22;36257;46.052;12.540;2023-02-22T01:50:26;9.40;92.00
40932;DHT22;36257;46.052;12.540;2023-02-22T01:52:52;9.40;92.00
40932;DHT22;36257;46.052;12.540;2023-02-22T01:55:18;9.40;91.80
40932;DHT22;36257;46.052;12.540;2023-02-22T01:57:45;9.40;91.70
40932;DHT22;36257;46.052;12.540;2023-02-22T02:00:17;9.40;91.70
40932;DHT22;36257;46.052;12.540;2023-02-22T02:02:49;9.30;91.80
40932;DHT22;36257;46.052;12.540;2023-02-22T02:05:18;9.40;91.70
40932;DHT22;36257;46.052;12.540;2023-02-22T02:07:43;9.40;91.50
40932;DHT22;36257;46.052;12.540;2023-02-22T02:10:13;9.40;91.60
40932;DHT22;36257;46.052;12.540;2023-02-22T02:12:44;9.40;91.50
40932;DHT22;36257;46.052;12.540;2023-02-22T02:15:31;9.40;91.30
40932;DHT22;36257;46.052;12.540;2023-02-22T02:18:00;9.40;91.10
40932;DHT22;36257;46.052;12.540;2023-02-22T02:23:28;9.40;91.30
40932;DHT22;36257;46.052;12.540;2023-02-22T02:28:50;9.40;91.60
40932;DHT22;36257;46.052;12.540;2023-02-22T02:31:59;9.40;91.30
40932;DHT22;36257;46.052;12.540;2023-02-22T02:39:58;9.40;91.10
40932;DHT22;36257;46.052;12.540;2023-02-22T02:42:34;9.40;91.20
40932;DHT22;36257;46.052;12.540;2023-02-22T02:45:07;9.50;91.20
40932;DHT22;36257;46.052;12.540;2023-02-22T02:47:40;9.50;91.30
40932;DHT22;36257;46.052;12.540;2023-02-22T02:50:15;9.40;91.80
40932;DHT22;36257;46.052;12.540;2023-02-22T02:52:43;9.30;92.10
40932;DHT22;36257;46.052;12.540;2023-02-22T02:55:10;9.30;92.50
40932;DHT22;36257;46.052;12.540;2023-02-22T02:57:37;9.30;92.40
40932;DHT22;36257;46.052;12.540;2023-02-22T03:00:04;9.30;92.50
40932;DHT22;36257;46.052;12.540;2023-02-22T03:02:57;9.30;92.30
40932;DHT22;36257;46.052;12.540;2023-02-22T03:13:40;9.40;91.90
40932;DHT22;36257;46.052;12.540;2023-02-22T03:29:31;9.30;91.90
40932;DHT22;36257;46.052;12.540;2023-02-22T03:32:01;9.30;92.10
40932;DHT22;36257;46.052;12.540;2023-02-22T03:34:41;9.20;92.30
40932;DHT22;36257;46.052;12.540;2023-02-22T03:37:14;9.20;92.50
40932;DHT22;36257;46.052;12.540;2023-02-22T03:39:42;9.30;92.30
40932;DHT22;36257;46.052;12.540;2023-02-22T03:42:13;9.30;92.10
40932;DHT22;36257;46.052;12.540;2023-02-22T03:44:42;9.30;92.10
40932;DHT22;36257;46.052;12.540;2023-02-22T03:47:13;9.30;92.10
40932;DHT22;36257;46.052;12.540;2023-02-22T03:50:00;9.20;92.30
40932;DHT22;36257;46.052;12.540;2023-02-22T03:52:34;9.30;92.10
40932;DHT22;36257;46.052;12.540;2023-02-22T03:55:00;9.20;92.10
40932;DHT22;36257;46.052;12.540;2023-02-22T03:57:35;9.20;92.40
40932;DHT22;36257;46.052;12.540;2023-02-22T04:00:03;9.20;92.50
40932;DHT22;36257;46.052;12.540;2023-02-22T04:02:31;9.20;92.30
40932;DHT22;36257;46.052;12.540;2023-02-22T04:04:57;9.10;92.40
40932;DHT22;36257;46.052;12.540;2023-02-22T04:07:23;9.10;92.50
40932;DHT22;36257;46.052;12.540;2023-02-22T04:09:51;9.10;92.50
40932;DHT22;36257;46.052;12.540;2023-02-22T04:12:16;9.10;92.70
40932;DHT22;36257;46.052;12.540;2023-02-22T04:14:42;9.00;92.90
40932;DHT22;36257;46.052;12.540;2023-02-22T04:17:08;9.00;93.00
40932;DHT22;36257;46.052;12.540;2023-02-22T04:19:34;9.00;93.00
40932;DHT22;36257;46.052;12.540;2023-02-22T04:21:59;8.90;93.20
40932;DHT22;36257;46.052;12.540;2023-02-22T04:24:25;8.90;93.10
40932;DHT22;36257;46.052;12.540;2023-02-22T04:26:50;8.90;93.30
40932;DHT22;36257;46.052;12.540;2023-02-22T04:29:16;8.90;93.20
40932;DHT22;36257;46.052;12.540;2023-02-22T04:31:42;8.90;93.20
40932;DHT22;36257;46.052;12.540;2023-02-22T04:34:07;8.90;93.00
40932;DHT22;36257;46.052;12.540;2023-02-22T04:36:33;8.90;92.70
40932;DHT22;36257;46.052;12.540;2023-02-22T04:38:59;8.90;92.90
40932;DHT22;36257;46.052;12.540;2023-02-22T04:41:25;8.80;92.70
40932;DHT22;36257;46.052;12.540;2023-02-22T04:43:50;8.80;92.90
40932;DHT22;36257;46.052;12.540;2023-02-22T04:46:16;8.80;92.70
40932;DHT22;36257;46.052;12.540;2023-02-22T04:48:42;8.90;92.60
40932;DHT22;36257;46.052;12.540;2023-02-22T04:51:08;8.90;92.50
40932;DHT22;36257;46.052;12.540;2023-02-22T04:53:34;8.90;92.10
40932;DHT22;36257;46.052;12.540;2023-02-22T04:56:00;8.90;92.00
40932;DHT22;36257;46.052;12.540;2023-02-22T04:58:26;8.80;91.90
40932;DHT22;36257;46.052;12.540;2023-02-22T05:00:52;8.80;91.90
40932;DHT22;36257;46.052;12.540;2023-02-22T05:03:18;8.80;91.90
40932;DHT22;36257;46.052;12.540;2023-02-22T05:05:43;8.70;91.80
40932;DHT22;36257;46.052;12.540;2023-02-22T05:08:09;8.70;91.80
40932;DHT22;36257;46.052;12.540;2023-02-22T05:10:35;8.60;92.00
40932;DHT22;36257;46.052;12.540;2023-02-22T05:13:00;8.60;92.20
40932;DHT22;36257;46.052;12.540;2023-02-22T05:15:26;8.50;92.20
40932;DHT22;36257;46.052;12.540;2023-02-22T05:17:52;8.40;92.40
40932;DHT22;36257;46.052;12.540;2023-02-22T05:20:31;8.40;92.30
40932;DHT22;36257;46.052;12.540;2023-02-22T05:22:58;8.30;92.60
40932;DHT22;36257;46.052;12.540;2023-02-22T05:25:25;8.20;92.70
40932;DHT22;36257;46.052;12.540;2023-02-22T05:28:03;8.20;92.80
40932;DHT22;36257;46.052;12.540;2023-02-22T05:30:36;8.10;93.00
40932;DHT22;36257;46.052;12.540;2023-02-22T05:33:08;8.10;93.30
40932;DHT22;36257;46.052;12.540;2023-02-22T05:35:34;8.00;93.40
40932;DHT22;36257;46.052;12.540;2023-02-22T05:38:02;7.90;93.60
40932;DHT22;36257;46.052;12.540;2023-02-22T05:40:29;7.80;93.80
40932;DHT22;36257;46.052;12.540;2023-02-22T05:42:55;7.80;93.90
40932;DHT22;36257;46.052;12.540;2023-02-22T05:45:23;7.80;93.90
40932;DHT22;36257;46.052;12.540;2023-02-22T05:47:50;7.70;93.90
40932;DHT22;36257;46.052;12.540;2023-02-22T05:50:16;7.60;94.20
40932;DHT22;36257;46.052;12.540;2023-02-22T05:52:43;7.60;94.30
40932;DHT22;36257;46.052;12.540;2023-02-22T05:55:09;7.60;94.40
40932;DHT22;36257;46.052;12.540;2023-02-22T05:57:35;7.50;94.60
40932;DHT22;36257;46.052;12.540;2023-02-22T06:00:04;7.50;94.40
40932;DHT22;36257;46.052;12.540;2023-02-22T06:02:31;7.50;94.70
40932;DHT22;36257;46.052;12.540;2023-02-22T06:04:57;7.40;95.00
40932;DHT22;36257;46.052;12.540;2023-02-22T06:07:23;7.40;95.00
40932;DHT22;36257;46.052;12.540;2023-02-22T06:09:48;7.40;94.80
40932;DHT22;36257;46.052;12.540;2023-02-22T06:12:14;7.40;94.90
40932;DHT22;36257;46.052;12.540;2023-02-22T06:14:41;7.30;94.90
40932;DHT22;36257;46.052;12.540;2023-02-22T06:17:11;7.30;95.10
40932;DHT22;36257;46.052;12.540;2023-02-22T06:19:37;7.30;95.20
40932;DHT22;36257;46.052;12.540;2023-02-22T06:22:05;7.30;95.20
40932;DHT22;36257;46.052;12.540;2023-02-22T06:24:30;7.30;95.40
40932;DHT22;36257;46.052;12.540;2023-02-22T06:26:58;7.30;95.30
40932;DHT22;36257;46.052;12.540;2023-02-22T06:29:25;7.30;95.10
40932;DHT22;36257;46.052;12.540;2023-02-22T06:31:51;7.30;95.30
40932;DHT22;36257;46.052;12.540;2023-02-22T06:34:17;7.30;95.40
40932;DHT22;36257;46.052;12.540;2023-02-22T06:36:43;7.30;95.30
40932;DHT22;36257;46.052;12.540;2023-02-22T06:39:13;7.30;95.50
40932;DHT22;36257;46.052;12.540;2023-02-22T06:41:40;7.20;95.70
40932;DHT22;36257;46.052;12.540;2023-02-22T06:44:07;7.20;96.00
40932;DHT22;36257;46.052;12.540;2023-02-22T06:46:32;7.30;96.00
40932;DHT22;36257;46.052;12.540;2023-02-22T06:48:59;7.40;95.70
40932;DHT22;36257;46.052;12.540;2023-02-22T06:51:26;7.40;95.60
40932;DHT22;36257;46.052;12.540;2023-02-22T06:53:51;7.50;95.60
40932;DHT22;36257;46.052;12.540;2023-02-22T06:56:18;7.40;95.70
40932;DHT22;36257;46.052;12.540;2023-02-22T06:58:43;7.50;95.80
40932;DHT22;36257;46.052;12.540;2023-02-22T07:01:09;7.50;95.90
40932;DHT22;36257;46.052;12.540;2023-02-22T07:03:35;7.50;96.00
40932;DHT22;36257;46.052;12.540;2023-02-22T07:06:05;7.50;95.80
40932;DHT22;36257;46.052;12.540;2023-02-22T07:08:30;7.50;95.90
40932;DHT22;36257;46.052;12.540;2023-02-22T07:10:56;7.50;96.20
40932;DHT22;36257;46.052;12.540;2023-02-22T07:13:22;7.60;96.30
40932;DHT22;36257;46.052;12.540;2023-02-22T07:15:47;7.60;96.60
40932;DHT22;36257;46.052;12.540;2023-02-22T07:18:13;7.60;96.70
40932;DHT22;36257;46.052;12.540;2023-02-22T07:20:41;7.70;96.60
40932;DHT22;36257;46.052;12.540;2023-02-22T07:23:07;7.80;96.50
40932;DHT22;36257;46.052;12.540;2023-02-22T07:25:33;7.90;96.50
40932;DHT22;36257;46.052;12.540;2023-02-22T07:27:58;8.00;96.20
40932;DHT22;36257;46.052;12.540;2023-02-22T07:30:27;8.10;96.20
40932;DHT22;36257;46.052;12.540;2023-02-22T07:33:01;8.20;95.90
40932;DHT22;36257;46.052;12.540;2023-02-22T07:35:29;8.40;95.80
40932;DHT22;36257;46.052;12.540;2023-02-22T07:37:55;8.50;95.60
40932;DHT22;36257;46.052;12.540;2023-02-22T07:40:23;8.70;95.70
40932;DHT22;36257;46.052;12.540;2023-02-22T07:43:00;8.90;95.50
40932;DHT22;36257;46.052;12.540;2023-02-22T07:45:33;9.10;94.70
40932;DHT22;36257;46.052;12.540;2023-02-22T07:48:00;9.30;94.40
40932;DHT22;36257;46.052;12.540;2023-02-22T07:50:27;9.60;94.10
40932;DHT22;36257;46.052;12.540;2023-02-22T07:52:56;9.70;93.50
40932;DHT22;36257;46.052;12.540;2023-02-22T07:55:25;9.80;92.90
40932;DHT22;36257;46.052;12.540;2023-02-22T07:57:53;10.00;92.00
40932;DHT22;36257;46.052;12.540;2023-02-22T08:00:29;10.10;91.70
40932;DHT22;36257;46.052;12.540;2023-02-22T08:02:56;10.10;91.40
40932;DHT22;36257;46.052;12.540;2023-02-22T08:05:24;10.20;91.10
40932;DHT22;36257;46.052;12.540;2023-02-22T08:07:50;10.30;90.50
40932;DHT22;36257;46.052;12.540;2023-02-22T08:10:17;10.40;90.10
40932;DHT22;36257;46.052;12.540;2023-02-22T08:12:43;10.50;89.60
40932;DHT22;36257;46.052;12.540;2023-02-22T08:15:17;10.70;89.50
40932;DHT22;36257;46.052;12.540;2023-02-22T08:17:43;10.90;88.80
40932;DHT22;36257;46.052;12.540;2023-02-22T08:20:10;11.10;88.60
40932;DHT22;36257;46.052;12.540;2023-02-22T08:22:35;11.40;87.40
40932;DHT22;36257;46.052;12.540;2023-02-22T08:25:01;11.60;86.60
40932;DHT22;36257;46.052;12.540;2023-02-22T08:27:29;11.70;85.80
40932;DHT22;36257;46.052;12.540;2023-02-22T08:29:55;11.80;85.50
40932;DHT22;36257;46.052;12.540;2023-02-22T08:32:22;11.80;85.70
40932;DHT22;36257;46.052;12.540;2023-02-22T08:34:48;11.80;85.30
40932;DHT22;36257;46.052;12.540;2023-02-22T08:37:18;11.90;85.30
40932;DHT22;36257;46.052;12.540;2023-02-22T08:39:44;11.90;86.10
40932;DHT22;36257;46.052;12.540;2023-02-22T08:42:10;12.00;85.70
40932;DHT22;36257;46.052;12.540;2023-02-22T08:44:39;11.90;84.70
40932;DHT22;36257;46.052;12.540;2023-02-22T08:47:05;12.00;84.60
40932;DHT22;36257;46.052;12.540;2023-02-22T08:49:31;12.10;83.80
40932;DHT22;36257;46.052;12.540;2023-02-22T08:51:57;12.10;83.90
40932;DHT22;36257;46.052;12.540;2023-02-22T08:54:23;12.20;84.00
40932;DHT22;36257;46.052;12.540;2023-02-22T08:56:49;12.30;83.90
40932;DHT22;36257;46.052;12.540;2023-02-22T08:59:15;12.20;84.20
40932;DHT22;36257;46.052;12.540;2023-02-22T09:01:41;12.30;83.80
40932;DHT22;36257;46.052;12.540;2023-02-22T09:04:07;12.40;83.50
40932;DHT22;36257;46.052;12.540;2023-02-22T09:06:33;12.50;83.30
40932;DHT22;36257;46.052;12.540;2023-02-22T09:08:58;12.70;83.80
40932;DHT22;36257;46.052;12.540;2023-02-22T09:11:24;12.80;83.50
40932;DHT22;36257;46.052;12.540;2023-02-22T09:13:49;13.00;81.70
40932;DHT22;36257;46.052;12.540;2023-02-22T09:16:15;13.20;82.20
40932;DHT22;36257;46.052;12.540;2023-02-22T09:18:41;13.40;82.10
40932;DHT22;36257;46.052;12.540;2023-02-22T09:21:07;13.40;82.10
40932;DHT22;36257;46.052;12.540;2023-02-22T09:23:32;13.60;80.50
40932;DHT22;36257;46.052;12.540;2023-02-22T09:25:59;13.60;80.30
40932;DHT22;36257;46.052;12.540;2023-02-22T09:28:26;13.70;80.00
40932;DHT22;36257;46.052;12.540;2023-02-22T09:30:52;13.90;79.20
40932;DHT22;36257;46.052;12.540;2023-02-22T09:33:19;14.00;78.70
40932;DHT22;36257;46.052;12.540;2023-02-22T09:35:47;14.20;79.00
40932;DHT22;36257;46.052;12.540;2023-02-22T09:38:21;14.50;78.80
40932;DHT22;36257;46.052;12.540;2023-02-22T09:41:17;14.90;78.30
40932;DHT22;36257;46.052;12.540;2023-02-22T09:46:46;15.40;74.80
40932;DHT22;36257;46.052;12.540;2023-02-22T09:52:36;15.30;76.10
40932;DHT22;36257;46.052;12.540;2023-02-22T09:55:14;15.40;76.70
40932;DHT22;36257;46.052;12.540;2023-02-22T09:57:42;15.60;75.30
40932;DHT22;36257;46.052;12.540;2023-02-22T10:00:24;15.60;74.00
40932;DHT22;36257;46.052;12.540;2023-02-22T10:03:28;15.50;74.40
40932;DHT22;36257;46.052;12.540;2023-02-22T10:06:10;15.30;75.60
40932;DHT22;36257;46.052;12.540;2023-02-22T10:08:37;15.20;75.50
40932;DHT22;36257;46.052;12.540;2023-02-22T10:20:19;15.00;74.80
40932;DHT22;36257;46.052;12.540;2023-02-22T10:25:25;15.20;75.20
40932;DHT22;36257;46.052;12.540;2023-02-22T10:27:54;15.00;76.00
40932;DHT22;36257;46.052;12.540;2023-02-22T10:30:27;14.90;75.40
40932;DHT22;36257;46.052;12.540;2023-02-22T10:33:05;14.80;77.20
40932;DHT22;36257;46.052;12.540;2023-02-22T10:35:35;15.10;77.90
40932;DHT22;36257;46.052;12.540;2023-02-22T10:38:19;15.40;75.40
40932;DHT22;36257;46.052;12.540;2023-02-22T10:41:20;15.40;75.90
40932;DHT22;36257;46.052;12.540;2023-02-22T10:43:48;15.40;74.80
40932;DHT22;36257;46.052;12.540;2023-02-22T10:46:16;15.20;74.70
40932;DHT22;36257;46.052;12.540;2023-02-22T10:48:45;15.30;74.70
40932;DHT22;36257;46.052;12.540;2023-02-22T10:51:12;15.00;75.80
40932;DHT22;36257;46.052;12.540;2023-02-22T10:53:38;14.90;75.50
40932;DHT22;36257;46.052;12.540;2023-02-22T10:56:25;15.20;75.90
40932;DHT22;36257;46.052;12.540;2023-02-22T10:58:56;15.40;76.40
40932;DHT22;36257;46.052;12.540;2023-02-22T11:04:15;15.90;74.40
40932;DHT22;36257;46.052;12.540;2023-02-22T11:06:44;15.90;74.30
40932;DHT22;36257;46.052;12.540;2023-02-22T11:09:16;16.00;73.50
40932;DHT22;36257;46.052;12.540;2023-02-22T11:11:47;16.10;74.20
40932;DHT22;36257;46.052;12.540;2023-02-22T11:14:33;16.30;74.30
40932;DHT22;36257;46.052;12.540;2023-02-22T11:17:00;16.40;73.00
40932;DHT22;36257;46.052;12.540;2023-02-22T11:19:27;16.00;72.40
40932;DHT22;36257;46.052;12.540;2023-02-22T11:22:18;16.10;74.20
40932;DHT22;36257;46.052;12.540;2023-02-22T11:24:58;16.50;72.00
40932;DHT22;36257;46.052;12.540;2023-02-22T11:27:35;16.90;73.40
40932;DHT22;36257;46.052;12.540;2023-02-22T11:38:22;17.10;71.70
40932;DHT22;36257;46.052;12.540;2023-02-22T11:41:16;17.10;70.90
40932;DHT22;36257;46.052;12.540;2023-02-22T11:43:47;17.00;70.10
40932;DHT22;36257;46.052;12.540;2023-02-22T11:48:52;17.30;70.20
40932;DHT22;36257;46.052;12.540;2023-02-22T11:51:27;16.80;70.40
40932;DHT22;36257;46.052;12.540;2023-02-22T11:59:35;16.50;71.00
40932;DHT22;36257;46.052;12.540;2023-02-22T12:15:38;18.10;69.80
40932;DHT22;36257;46.052;12.540;2023-02-22T12:21:01;18.20;67.70
40932;DHT22;36257;46.052;12.540;2023-02-22T12:23:39;18.00;68.50
40932;DHT22;36257;46.052;12.540;2023-02-22T12:26:14;17.90;68.80
40932;DHT22;36257;46.052;12.540;2023-02-22T12:28:50;18.10;68.50
40932;DHT22;36257;46.052;12.540;2023-02-22T12:36:55;18.20;68.20
40932;DHT22;36257;46.052;12.540;2023-02-22T12:45:16;18.70;67.60
40932;DHT22;36257;46.052;12.540;2023-02-22T12:47:52;18.70;67.70
40932;DHT22;36257;46.052;12.540;2023-02-22T12:50:22;19.00;66.30
40932;DHT22;36257;46.052;12.540;2023-02-22T12:53:13;18.80;66.60
40932;DHT22;36257;46.052;12.540;2023-02-22T12:55:50;18.70;66.50
40932;DHT22;36257;46.052;12.540;2023-02-22T12:58:24;19.10;66.20
40932;DHT22;36257;46.052;12.540;2023-02-22T13:01:15;19.20;65.70
40932;DHT22;36257;46.052;12.540;2023-02-22T13:03:43;19.40;65.90
40932;DHT22;36257;46.052;12.540;2023-02-22T13:09:06;19.10;64.80
40932;DHT22;36257;46.052;12.540;2023-02-22T13:14:35;18.50;68.00
40932;DHT22;36257;46.052;12.540;2023-02-22T13:17:24;18.20;67.00
40932;DHT22;36257;46.052;12.540;2023-02-22T13:20:13;18.30;68.00
40932;DHT22;36257;46.052;12.540;2023-02-22T13:45:42;17.90;67.50
40932;DHT22;36257;46.052;12.540;2023-02-22T13:51:07;17.60;68.90
40932;DHT22;36257;46.052;12.540;2023-02-22T13:54:39;17.60;69.30
40932;DHT22;36257;46.052;12.540;2023-02-22T13:56:45;17.60;69.10
40932;DHT22;36257;46.052;12.540;2023-02-22T13:59:31;17.70;69.20
40932;DHT22;36257;46.052;12.540;2023-02-22T14:01:58;17.80;68.20
40932;DHT22;36257;46.052;12.540;2023-02-22T14:06:54;18.10;67.50
40932;DHT22;36257;46.052;12.540;2023-02-22T14:12:57;18.00;67.50
40932;DHT22;36257;46.052;12.540;2023-02-22T14:17:57;18.00;68.30
40932;DHT22;36257;46.052;12.540;2023-02-22T14:20:36;17.70;67.70
40932;DHT22;36257;46.052;12.540;2023-02-22T14:23:34;17.20;69.40
40932;DHT22;36257;46.052;12.540;2023-02-22T14:28:51;16.50;71.20
40932;DHT22;36257;46.052;12.540;2023-02-22T14:31:23;16.50;72.10
40932;DHT22;36257;46.052;12.540;2023-02-22T14:36:37;16.00;72.40
40932;DHT22;36257;46.052;12.540;2023-02-22T14:47:26;15.70;73.10
40932;DHT22;36257;46.052;12.540;2023-02-22T14:50:02;15.40;74.20
40932;DHT22;36257;46.052;12.540;2023-02-22T14:52:32;15.20;73.80
40932;DHT22;36257;46.052;12.540;2023-02-22T14:55:05;15.20;73.80
40932;DHT22;36257;46.052;12.540;2023-02-22T15:00:36;15.00;75.10
40932;DHT22;36257;46.052;12.540;2023-02-22T15:03:02;15.00;76.00
40932;DHT22;36257;46.052;12.540;2023-02-22T15:05:35;14.90;75.30
40932;DHT22;36257;46.052;12.540;2023-02-22T15:08:05;14.90;75.70
40932;DHT22;36257;46.052;12.540;2023-02-22T15:10:44;14.90;75.90
40932;DHT22;36257;46.052;12.540;2023-02-22T15:15:47;14.70;76.60
40932;DHT22;36257;46.052;12.540;2023-02-22T15:21:09;14.40;77.50
40932;DHT22;36257;46.052;12.540;2023-02-22T15:23:46;14.50;76.90
40932;DHT22;36257;46.052;12.540;2023-02-22T15:26:35;14.50;76.40
40932;DHT22;36257;46.052;12.540;2023-02-22T15:29:09;14.40;77.00
40932;DHT22;36257;46.052;12.540;2023-02-22T15:31:38;14.30;78.20
40932;DHT22;36257;46.052;12.540;2023-02-22T15:36:47;14.00;78.40
40932;DHT22;36257;46.052;12.540;2023-02-22T15:39:31;14.10;78.50
40932;DHT22;36257;46.052;12.540;2023-02-22T15:42:11;13.90;78.60
40932;DHT22;36257;46.052;12.540;2023-02-22T15:44:47;13.80;79.20
40932;DHT22;36257;46.052;12.540;2023-02-22T15:47:18;13.70;79.30
40932;DHT22;36257;46.052;12.540;2023-02-22T15:49:45;13.50;79.80
40932;DHT22;36257;46.052;12.540;2023-02-22T15:52:30;13.40;80.50
40932;DHT22;36257;46.052;12.540;2023-02-22T15:54:56;13.20;81.20
40932;DHT22;36257;46.052;12.540;2023-02-22T15:57:22;13.10;81.10
40932;DHT22;36257;46.052;12.540;2023-02-22T15:59:52;13.10;81.80
40932;DHT22;36257;46.052;12.540;2023-02-22T16:02:39;13.10;81.20
40932;DHT22;36257;46.052;12.540;2023-02-22T16:05:12;13.10;81.60
40932;DHT22;36257;46.052;12.540;2023-02-22T16:07:41;13.10;81.40
40932;DHT22;36257;46.052;12.540;2023-02-22T16:10:27;12.90;81.80
40932;DHT22;36257;46.052;12.540;2023-02-22T16:13:19;12.80;81.90
40932;DHT22;36257;46.052;12.540;2023-02-22T16:18:47;12.70;82.10
40932;DHT22;36257;46.052;12.540;2023-02-22T16:21:15;12.60;82.50
40932;DHT22;36257;46.052;12.540;2023-02-22T16:26:19;12.70;83.30
40932;DHT22;36257;46.052;12.540;2023-02-22T16:28:54;12.70;83.20
40932;DHT22;36257;46.052;12.540;2023-02-22T16:31:23;12.70;83.10
40932;DHT22;36257;46.052;12.540;2023-02-22T16:33:51;12.60;83.20
40932;DHT22;36257;46.052;12.540;2023-02-22T16:36:19;12.50;83.70
40932;DHT22;36257;46.052;12.540;2023-02-22T16:38:48;12.60;83.60
40932;DHT22;36257;46.052;12.540;2023-02-22T16:41:16;12.50;83.40
40932;DHT22;36257;46.052;12.540;2023-02-22T16:43:46;12.50;83.50
40932;DHT22;36257;46.052;12.540;2023-02-22T16:46:12;12.50;84.10
40932;DHT22;36257;46.052;12.540;2023-02-22T16:48:41;12.30;84.50
40932;DHT22;36257;46.052;12.540;2023-02-22T16:51:22;12.20;85.00
40932;DHT22;36257;46.052;12.540;2023-02-22T16:53:49;12.10;85.10
40932;DHT22;36257;46.052;12.540;2023-02-22T16:56:17;12.00;85.20
40932;DHT22;36257;46.052;12.540;2023-02-22T16:58:46;11.90;85.10
40932;DHT22;36257;46.052;12.540;2023-02-22T17:01:14;11.70;85.50
40932;DHT22;36257;46.052;12.540;2023-02-22T17:03:40;11.60;85.70
40932;DHT22;36257;46.052;12.540;2023-02-22T17:06:06;11.40;86.10
40932;DHT22;36257;46.052;12.540;2023-02-22T17:08:38;11.10;86.80
40932;DHT22;36257;46.052;12.540;2023-02-22T17:11:05;11.00;87.20
40932;DHT22;36257;46.052;12.540;2023-02-22T17:13:31;10.90;87.60
40932;DHT22;36257;46.052;12.540;2023-02-22T17:15:57;10.80;87.90
40932;DHT22;36257;46.052;12.540;2023-02-22T17:18:24;10.70;87.90
40932;DHT22;36257;46.052;12.540;2023-02-22T17:20:53;10.70;87.90
40932;DHT22;36257;46.052;12.540;2023-02-22T17:23:20;10.60;88.20
40932;DHT22;36257;46.052;12.540;2023-02-22T17:25:57;10.60;88.00
40932;DHT22;36257;46.052;12.540;2023-02-22T17:28:29;10.60;87.90
40932;DHT22;36257;46.052;12.540;2023-02-22T17:30:57;10.40;88.30
40932;DHT22;36257;46.052;12.540;2023-02-22T17:33:28;10.40;88.50
40932;DHT22;36257;46.052;12.540;2023-02-22T17:35:56;10.30;88.50
40932;DHT22;36257;46.052;12.540;2023-02-22T17:38:22;10.20;88.50
40932;DHT22;36257;46.052;12.540;2023-02-22T17:40:48;10.20;88.60
40932;DHT22;36257;46.052;12.540;2023-02-22T17:43:17;10.10;88.80
40932;DHT22;36257;46.052;12.540;2023-02-22T17:45:44;10.00;88.90
40932;DHT22;36257;46.052;12.540;2023-02-22T17:48:11;10.00;89.10
40932;DHT22;36257;46.052;12.540;2023-02-22T17:50:38;10.00;89.10
40932;DHT22;36257;46.052;12.540;2023-02-22T17:53:04;9.80;89.10
40932;DHT22;36257;46.052;12.540;2023-02-22T17:55:30;9.80;89.30
40932;DHT22;36257;46.052;12.540;2023-02-22T17:57:58;9.70;89.60
40932;DHT22;36257;46.052;12.540;2023-02-22T18:00:34;9.60;89.90
40932;DHT22;36257;46.052;12.540;2023-02-22T18:03:02;9.60;89.90
40932;DHT22;36257;46.052;12.540;2023-02-22T18:05:29;9.50;90.10
40932;DHT22;36257;46.052;12.540;2023-02-22T18:07:55;9.50;90.30
40932;DHT22;36257;46.052;12.540;2023-02-22T18:10:21;9.40;90.50
40932;DHT22;36257;46.052;12.540;2023-02-22T18:12:47;9.40;90.80
40932;DHT22;36257;46.052;12.540;2023-02-22T18:15:13;9.40;90.80
40932;DHT22;36257;46.052;12.540;2023-02-22T18:17:42;9.40;90.80
40932;DHT22;36257;46.052;12.540;2023-02-22T18:20:08;9.30;91.00
40932;DHT22;36257;46.052;12.540;2023-02-22T18:22:42;9.30;91.10
40932;DHT22;36257;46.052;12.540;2023-02-22T18:25:09;9.30;91.10
40932;DHT22;36257;46.052;12.540;2023-02-22T18:27:35;9.20;91.10
40932;DHT22;36257;46.052;12.540;2023-02-22T18:30:01;9.20;91.40
40932;DHT22;36257;46.052;12.540;2023-02-22T18:32:27;9.20;91.80